createdAt,value
2019-04-19T00:03:33.861Z,23.80
2019-04-19T00:06:05.940Z,23.80
2019-04-19T00:08:49.485Z,23.80
2019-04-19T00:11:17.640Z,23.80
2019-04-19T00:13:36.832Z,23.80
2019-04-19T00:16:06.851Z,23.80
2019-04-19T00:18:43.733Z,23.80
2019-04-19T00:21:24.651Z,23.70
2019-04-19T00:23:44.369Z,23.90
2019-04-19T00:26:10.870Z,23.80
2019-04-19T00:28:47.755Z,23.80
2019-04-19T00:31:26.298Z,23.80
2019-04-19T00:33:47.551Z,23.80
2019-04-19T00:36:16.224Z,23.80
2019-04-19T00:38:57.218Z,23.80
2019-04-19T00:41:54.508Z,23.70
2019-04-19T00:44:23.662Z,23.70
2019-04-19T00:47:00.056Z,23.70
2019-04-19T00:49:21.865Z,23.60
2019-04-19T00:51:54.104Z,23.70
2019-04-19T00:54:21.105Z,23.70
2019-04-19T00:56:54.289Z,23.60
2019-04-19T00:59:17.809Z,23.50
2019-04-19T01:01:53.707Z,23.30
2019-04-19T01:04:22.772Z,23.40
2019-04-19T01:06:54.846Z,23.30
2019-04-19T01:09:37.144Z,23.20
2019-04-19T01:12:06.930Z,23.20
2019-04-19T01:14:34.439Z,23.20
2019-04-19T01:17:15.191Z,23.20
2019-04-19T01:19:27.897Z,23.10
2019-04-19T01:22:01.811Z,23.10
2019-04-19T01:24:33.368Z,23.00
2019-04-19T01:27:00.672Z,23.00
2019-04-19T01:29:38.119Z,23.00
2019-04-19T01:32:08.094Z,23.00
2019-04-19T01:34:34.092Z,23.10
2019-04-19T01:37:11.238Z,23.10
2019-04-19T01:39:52.401Z,23.10
2019-04-19T01:42:24.826Z,22.90
2019-04-19T01:45:02.420Z,22.80
2019-04-19T01:47:51.469Z,22.70
2019-04-19T01:53:26.691Z,22.70
2019-04-19T01:55:39.970Z,22.60
2019-04-19T01:58:12.951Z,22.70
2019-04-19T02:00:44.865Z,22.60
2019-04-19T02:03:11.087Z,22.60
2019-04-19T02:05:47.210Z,22.50
2019-04-19T02:08:14.463Z,22.60
2019-04-19T02:11:32.726Z,22.60
2019-04-19T02:14:02.897Z,22.70
2019-04-19T02:16:26.137Z,22.80
2019-04-19T02:19:00.633Z,22.80
2019-04-19T02:21:31.028Z,22.70
2019-04-19T02:23:59.369Z,22.70
2019-04-19T02:26:28.580Z,22.70
2019-04-19T02:29:05.299Z,22.60
2019-04-19T02:31:59.401Z,22.80
2019-04-19T02:39:38.626Z,22.70
2019-04-19T02:42:21.222Z,22.80
2019-04-19T02:44:38.294Z,22.80
2019-04-19T02:47:24.973Z,22.80
2019-04-19T02:49:44.223Z,22.90
2019-04-19T02:52:25.885Z,22.90
2019-04-19T02:54:49.645Z,22.80
2019-04-19T02:57:31.667Z,22.80
2019-04-19T03:00:04.399Z,22.80
2019-04-19T03:05:21.761Z,22.80
2019-04-19T03:07:16.024Z,22.90
2019-04-19T03:09:47.306Z,22.80
2019-04-19T03:12:36.737Z,22.90
2019-04-19T03:15:02.028Z,22.90
2019-04-19T03:17:38.825Z,22.90
2019-04-19T03:20:05.366Z,23.00
2019-04-19T03:22:39.327Z,22.90
2019-04-19T03:25:10.888Z,22.90
2019-04-19T03:27:40.931Z,22.80
2019-04-19T03:30:10.697Z,22.90
2019-04-19T03:33:05.039Z,23.00
2019-04-19T03:35:12.349Z,22.90
2019-04-19T03:37:49.960Z,23.00
2019-04-19T03:40:25.437Z,23.00
2019-04-19T03:42:55.245Z,23.20
2019-04-19T03:45:31.926Z,23.20
2019-04-19T03:48:04.325Z,23.20
2019-04-19T03:50:32.359Z,23.30
2019-04-19T03:53:07.175Z,23.30
2019-04-19T03:55:35.686Z,23.30
2019-04-19T03:57:58.112Z,23.20
2019-04-19T04:00:40.765Z,23.20
2019-04-19T04:03:21.900Z,23.30
2019-04-19T04:05:45.861Z,23.20
2019-04-19T04:08:19.794Z,23.20
2019-04-19T04:10:49.163Z,23.10
2019-04-19T04:13:36.322Z,23.20
2019-04-19T04:16:05.611Z,23.20
2019-04-19T04:18:25.740Z,23.20
2019-04-19T04:20:58.888Z,23.20
2019-04-19T04:23:34.223Z,23.20
2019-04-19T04:26:04.913Z,23.30
2019-04-19T04:28:45.635Z,23.20
2019-04-19T04:31:13.371Z,23.20
2019-04-19T04:33:47.154Z,23.20
2019-04-19T04:36:26.353Z,23.20
2019-04-19T04:38:40.723Z,23.10
2019-04-19T04:41:17.009Z,23.10
2019-04-19T04:43:48.176Z,23.10
2019-04-19T04:46:42.258Z,23.10
2019-04-19T04:49:04.517Z,23.10
2019-04-19T04:51:39.143Z,23.10
2019-04-19T04:53:53.607Z,23.10
2019-04-19T04:56:45.768Z,22.90
2019-04-19T04:59:12.472Z,22.70
2019-04-19T05:01:46.396Z,22.80
2019-04-19T05:04:20.061Z,22.80
2019-04-19T05:06:57.981Z,22.70
2019-04-19T05:09:28.221Z,22.60
2019-04-19T05:12:10.925Z,22.60
2019-04-19T05:14:33.917Z,22.50
2019-04-19T05:17:24.993Z,22.50
2019-04-19T05:19:41.627Z,22.60
2019-04-19T05:22:08.731Z,22.50
2019-04-19T05:24:44.639Z,22.50
2019-04-19T05:29:30.558Z,22.40
2019-04-19T05:31:55.963Z,22.40
2019-04-19T05:34:42.733Z,22.40
2019-04-19T05:37:12.765Z,22.30
2019-04-19T05:39:52.977Z,22.20
2019-04-19T05:42:43.399Z,22.20
2019-04-19T05:45:30.943Z,22.10
2019-04-19T05:47:37.743Z,22.10
2019-04-19T05:50:17.123Z,22.00
2019-04-19T05:52:42.377Z,22.00
2019-04-19T05:54:58.217Z,21.90
2019-04-19T05:57:49.093Z,21.80
2019-04-19T06:00:14.137Z,21.60
2019-04-19T06:02:38.377Z,21.50
2019-04-19T06:05:36.601Z,21.30
2019-04-19T06:07:45.729Z,21.20
2019-04-19T06:10:10.976Z,21.00
2019-04-19T06:12:41.807Z,20.90
2019-04-19T06:15:36.554Z,21.20
2019-04-19T06:18:00.469Z,21.10
2019-04-19T06:20:33.688Z,20.70
2019-04-19T06:23:07.094Z,20.50
2019-04-19T06:25:47.692Z,20.40
2019-04-19T06:30:45.909Z,20.10
2019-04-19T06:33:18.150Z,21.00
2019-04-19T06:35:38.660Z,21.00
2019-04-19T06:37:59.770Z,20.50
2019-04-19T06:40:32.782Z,20.30
2019-04-19T06:43:08.815Z,19.80
2019-04-19T06:45:49.130Z,19.80
2019-04-19T06:48:11.421Z,19.50
2019-04-19T06:50:39.647Z,19.10
2019-04-19T06:53:07.992Z,18.90
2019-04-19T06:55:43.262Z,18.60
2019-04-19T06:58:15.687Z,18.60
2019-04-19T07:00:54.910Z,18.30
2019-04-19T07:03:13.086Z,18.00
2019-04-19T07:06:03.826Z,17.90
2019-04-19T07:08:59.484Z,18.20
2019-04-19T07:11:22.263Z,19.90
2019-04-19T07:13:35.181Z,19.60
2019-04-19T07:16:15.880Z,19.10
2019-04-19T07:18:33.579Z,18.70
2019-04-19T07:21:12.384Z,17.90
2019-04-19T07:23:46.442Z,17.40
2019-04-19T07:26:15.633Z,16.60
2019-04-19T07:28:30.690Z,16.10
2019-04-19T07:31:02.733Z,15.80
2019-04-19T07:33:43.732Z,15.50
2019-04-19T07:36:27.388Z,15.00
2019-04-19T07:38:59.765Z,14.80
2019-04-19T07:41:26.768Z,14.70
2019-04-19T07:44:09.965Z,16.00
2019-04-19T07:46:53.244Z,17.10
2019-04-19T07:49:04.105Z,16.80
2019-04-19T07:51:37.976Z,17.00
2019-04-19T07:54:13.862Z,17.70
2019-04-19T07:59:33.987Z,16.60
2019-04-19T08:02:07.390Z,15.90
2019-04-19T08:09:42.942Z,16.60
2019-04-19T08:12:14.961Z,18.10
2019-04-19T08:29:35.419Z,17.10
2019-04-19T08:31:56.415Z,18.40
2019-04-19T08:34:28.260Z,18.70
2019-04-19T08:37:00.597Z,19.90
2019-04-19T08:39:47.506Z,20.20
2019-04-19T08:42:20.487Z,20.10
2019-04-19T08:44:43.074Z,19.50
2019-04-19T08:47:31.144Z,18.20
2019-04-19T08:49:59.520Z,17.20
2019-04-19T08:52:30.462Z,16.40
2019-04-19T08:55:19.644Z,16.50
2019-04-19T08:57:32.289Z,18.50
2019-04-19T09:00:23.262Z,17.40
2019-04-19T09:02:45.272Z,15.70
2019-04-19T09:05:23.477Z,15.30
2019-04-19T09:08:10.278Z,15.70
2019-04-19T09:10:30.639Z,15.40
2019-04-19T09:13:15.357Z,15.20
2019-04-19T09:15:33.078Z,15.90
2019-04-19T09:18:26.104Z,16.30
2019-04-19T09:20:40.264Z,15.10
2019-04-19T09:23:05.382Z,16.90
2019-04-19T09:25:49.937Z,15.80
2019-04-19T09:28:37.881Z,16.10
2019-04-19T09:30:57.067Z,16.60
2019-04-19T09:33:18.307Z,14.10
2019-04-19T09:35:53.308Z,14.00
2019-04-19T09:38:26.949Z,13.70
2019-04-19T09:40:52.613Z,13.40
2019-04-19T09:43:33.590Z,13.20
2019-04-19T09:45:48.974Z,13.00
2019-04-19T09:48:36.667Z,12.90
2019-04-19T09:51:07.329Z,13.10
2019-04-19T09:56:11.662Z,14.10
2019-04-19T09:58:39.654Z,15.20
2019-04-19T10:01:06.714Z,14.30
2019-04-19T10:03:44.293Z,14.40
2019-04-19T10:06:08.937Z,15.00
2019-04-19T10:08:39.937Z,13.70
2019-04-19T10:11:10.529Z,14.30
2019-04-19T10:13:41.954Z,14.70
2019-04-19T10:16:19.487Z,14.40
2019-04-19T10:18:54.533Z,14.20
2019-04-19T10:21:33.397Z,13.70
2019-04-19T10:24:01.778Z,13.60
2019-04-19T10:26:36.203Z,12.80
2019-04-19T10:29:16.754Z,12.40
2019-04-19T10:31:39.734Z,12.00
2019-04-19T10:34:10.108Z,13.50
2019-04-19T10:36:40.591Z,13.40
2019-04-19T10:39:13.814Z,13.60
2019-04-19T10:41:44.067Z,13.20
2019-04-19T10:44:17.329Z,12.80
2019-04-19T10:46:45.248Z,12.90
2019-04-19T10:49:21.431Z,13.20
2019-04-19T10:51:48.706Z,12.80
2019-04-19T10:54:20.050Z,12.00
2019-04-19T10:56:52.344Z,12.20
2019-04-19T10:59:22.522Z,11.70
2019-04-19T11:01:52.245Z,12.20
2019-04-19T11:04:22.812Z,12.60
2019-04-19T11:06:55.625Z,12.80
2019-04-19T11:09:26.781Z,12.90
2019-04-19T11:12:16.010Z,12.50
2019-04-19T11:14:46.191Z,10.70
2019-04-19T11:17:16.096Z,10.80
2019-04-19T11:20:01.012Z,11.80
2019-04-19T11:22:19.599Z,12.30
2019-04-19T11:24:50.024Z,12.30
2019-04-19T11:27:21.327Z,11.40
2019-04-19T11:29:52.869Z,10.80
2019-04-19T11:32:42.344Z,10.90
2019-04-19T11:35:13.851Z,10.50
2019-04-19T11:37:44.958Z,11.00
2019-04-19T11:40:15.485Z,10.10
2019-04-19T11:42:48.898Z,10.40
2019-04-19T11:45:19.766Z,10.80
2019-04-19T11:47:49.553Z,11.10
2019-04-19T11:50:19.874Z,11.20
2019-04-19T11:53:08.100Z,11.30
2019-04-19T11:55:40.707Z,11.30
2019-04-19T11:58:10.606Z,11.10
2019-04-19T12:00:43.379Z,10.10
2019-04-19T12:03:16.062Z,10.70
2019-04-19T12:05:47.521Z,10.90
2019-04-19T12:08:18.450Z,11.20
2019-04-19T12:10:48.593Z,10.60
2019-04-19T12:13:19.260Z,9.80
2019-04-19T12:15:49.281Z,9.10
2019-04-19T12:18:20.157Z,9.10
2019-04-19T12:20:51.111Z,8.80
2019-04-19T12:23:22.096Z,8.30
2019-04-19T12:25:53.566Z,8.70
2019-04-19T12:28:23.742Z,9.10
2019-04-19T12:30:56.698Z,8.70
2019-04-19T12:33:25.578Z,10.20
2019-04-19T12:35:55.276Z,10.20
2019-04-19T12:38:26.003Z,9.90
2019-04-19T12:40:58.290Z,10.60
2019-04-19T12:43:28.261Z,10.30
2019-04-19T12:45:59.052Z,10.70
2019-04-19T12:48:29.851Z,10.20
2019-04-19T12:51:19.444Z,9.90
2019-04-19T12:53:50.724Z,9.30
2019-04-19T12:56:22.237Z,9.10
2019-04-19T12:58:52.158Z,9.20
2019-04-19T13:01:23.986Z,10.10
2019-04-19T13:03:58.331Z,10.70
2019-04-19T13:06:33.667Z,11.00
2019-04-19T13:09:05.399Z,11.00
2019-04-19T13:11:35.221Z,11.00
2019-04-19T13:14:05.848Z,11.20
2019-04-19T13:16:36.581Z,11.00
2019-04-19T13:19:06.532Z,11.10
2019-04-19T13:21:36.649Z,11.10
2019-04-19T13:24:06.813Z,10.60
2019-04-19T13:26:36.667Z,11.10
2019-04-19T13:29:07.230Z,10.90
2019-04-19T13:31:37.122Z,11.30
2019-04-19T13:34:07.241Z,11.60
2019-04-19T13:36:41.000Z,11.60
2019-04-19T13:39:27.869Z,11.00
2019-04-19T13:42:03.145Z,11.30
2019-04-19T13:44:33.040Z,11.70
2019-04-19T13:47:03.034Z,11.70
2019-04-19T13:49:32.789Z,11.60
2019-04-19T13:52:02.993Z,11.40
2019-04-19T13:54:32.892Z,11.70
2019-04-19T13:57:03.645Z,11.70
2019-04-19T13:59:43.712Z,11.60
2019-04-19T14:02:06.234Z,11.70
2019-04-19T14:04:35.933Z,11.00
2019-04-19T14:07:05.628Z,10.70
2019-04-19T14:09:35.308Z,10.80
2019-04-19T14:12:05.564Z,11.10
2019-04-19T14:14:35.172Z,11.40
2019-04-19T14:17:05.976Z,10.10
2019-04-19T14:19:36.709Z,9.90
2019-04-19T14:22:06.888Z,10.10
2019-04-19T14:24:37.565Z,10.10
2019-04-19T14:27:09.115Z,11.10
2019-04-19T14:29:39.416Z,10.70
2019-04-19T14:32:09.491Z,11.00
2019-04-19T14:34:39.395Z,11.00
2019-04-19T14:37:12.711Z,11.40
2019-04-19T14:39:42.584Z,11.50
2019-04-19T14:42:13.568Z,11.80
2019-04-19T14:44:45.409Z,11.80
2019-04-19T14:47:15.410Z,11.50
2019-04-19T14:49:45.190Z,11.50
2019-04-19T14:52:16.165Z,11.50
2019-04-19T14:54:46.339Z,11.60
2019-04-19T14:57:17.830Z,11.80
2019-04-19T14:59:49.035Z,11.60
2019-04-19T15:02:39.042Z,11.40
2019-04-19T15:05:11.842Z,11.10
2019-04-19T15:07:41.866Z,10.90
2019-04-19T15:10:13.458Z,11.00
2019-04-19T15:12:43.318Z,11.60
2019-04-19T15:15:14.489Z,11.80
2019-04-19T15:17:45.430Z,11.50
2019-04-19T15:20:16.439Z,11.70
2019-04-19T15:22:46.433Z,11.80
2019-04-19T15:25:19.837Z,11.90
2019-04-19T15:27:49.135Z,12.00
2019-04-19T15:30:21.098Z,11.30
2019-04-19T15:32:50.867Z,11.20
2019-04-19T15:35:21.484Z,11.20
2019-04-19T15:37:51.946Z,10.50
2019-04-19T15:40:23.066Z,10.70
2019-04-19T15:42:52.942Z,10.60
2019-04-19T15:45:25.074Z,11.00
2019-04-19T15:47:55.027Z,11.40
2019-04-19T15:50:25.318Z,11.80
2019-04-19T15:52:55.821Z,11.80
2019-04-19T15:55:26.077Z,11.80
2019-04-19T15:57:56.509Z,12.10
2019-04-19T16:00:32.027Z,12.20
2019-04-19T16:03:10.021Z,12.30
2019-04-19T16:05:42.154Z,12.50
2019-04-19T16:08:16.172Z,12.60
2019-04-19T16:13:52.053Z,12.50
2019-04-19T16:16:23.136Z,12.80
2019-04-19T16:18:54.140Z,12.80
2019-04-19T16:21:32.884Z,12.80
2019-04-19T16:23:55.562Z,12.70
2019-04-19T16:26:25.224Z,12.80
2019-04-19T16:28:55.665Z,12.60
2019-04-19T16:31:26.475Z,12.70
2019-04-19T16:33:56.416Z,12.50
2019-04-19T16:36:26.063Z,12.50
2019-04-19T16:38:56.597Z,12.30
2019-04-19T16:41:26.750Z,12.30
2019-04-19T16:43:57.672Z,12.40
2019-04-19T16:46:30.332Z,12.40
2019-04-19T16:48:58.822Z,12.60
2019-04-19T16:51:37.896Z,12.50
2019-04-19T16:54:00.406Z,12.50
2019-04-19T16:56:30.138Z,12.70
2019-04-19T16:59:01.457Z,12.70
2019-04-19T17:01:32.633Z,12.60
2019-04-19T17:04:03.775Z,12.40
2019-04-19T17:06:33.974Z,12.90
2019-04-19T17:09:05.227Z,12.50
2019-04-19T17:11:35.721Z,12.60
2019-04-19T17:14:05.500Z,12.70
2019-04-19T17:16:39.339Z,12.70
2019-04-19T17:19:14.709Z,12.60
2019-04-19T17:21:53.853Z,12.70
2019-04-19T17:24:16.793Z,12.80
2019-04-19T17:26:46.900Z,12.80
2019-04-19T17:29:17.005Z,13.00
2019-04-19T17:31:47.861Z,12.80
2019-04-19T17:34:18.189Z,13.10
2019-04-19T17:36:48.445Z,12.80
2019-04-19T17:39:18.231Z,13.10
2019-04-19T17:41:48.388Z,13.00
2019-04-19T17:44:19.737Z,13.20
2019-04-19T17:46:50.839Z,13.20
2019-04-19T17:49:20.713Z,13.70
2019-04-19T17:52:01.831Z,13.70
2019-04-19T17:54:41.530Z,13.50
2019-04-19T17:56:53.319Z,13.30
2019-04-19T17:59:23.018Z,13.60
2019-04-19T18:01:53.220Z,13.30
2019-04-19T18:04:24.083Z,13.30
2019-04-19T18:06:59.285Z,13.20
2019-04-19T18:09:26.403Z,14.50
2019-04-19T18:11:56.124Z,14.10
2019-04-19T18:14:25.888Z,13.80
2019-04-19T18:16:56.708Z,13.70
2019-04-19T18:19:31.358Z,13.70
2019-04-19T18:22:10.248Z,13.50
2019-04-19T18:24:32.438Z,13.70
2019-04-19T18:27:04.734Z,13.90
2019-04-19T18:29:33.540Z,13.90
2019-04-19T18:32:06.049Z,14.20
2019-04-19T18:34:47.064Z,14.30
2019-04-19T18:37:18.871Z,14.70
2019-04-19T18:39:47.987Z,14.80
2019-04-19T18:42:17.859Z,14.90
2019-04-19T18:44:53.180Z,15.00
2019-04-19T18:47:19.441Z,15.10
2019-04-19T18:49:51.800Z,15.20
2019-04-19T18:52:33.727Z,15.40
2019-04-19T18:55:01.206Z,15.60
2019-04-19T18:57:24.572Z,15.50
2019-04-19T18:59:57.379Z,15.50
2019-04-19T19:02:28.382Z,15.40
2019-04-19T19:05:01.445Z,15.70
2019-04-19T19:07:30.053Z,15.70
2019-04-19T19:10:03.727Z,15.70
2019-04-19T19:12:34.700Z,15.70
2019-04-19T19:15:02.945Z,15.70
2019-04-19T19:17:34.153Z,15.80
2019-04-19T19:20:17.503Z,15.80
2019-04-19T19:23:02.487Z,15.70
2019-04-19T19:25:32.890Z,15.70
2019-04-19T19:27:50.478Z,15.60
2019-04-19T19:30:20.834Z,15.70
2019-04-19T19:32:53.921Z,15.60
2019-04-19T19:35:26.456Z,15.60
2019-04-19T19:37:56.964Z,15.50
2019-04-19T19:40:35.616Z,15.80
2019-04-19T19:43:22.551Z,16.00
2019-04-19T19:45:44.936Z,16.10
2019-04-19T19:48:29.879Z,16.20
2019-04-19T19:51:04.774Z,16.20
2019-04-19T19:53:45.883Z,16.30
2019-04-19T19:56:16.659Z,16.50
2019-04-19T19:58:27.915Z,16.40
2019-04-19T20:01:07.188Z,16.30
2019-04-19T20:03:26.439Z,16.40
2019-04-19T20:05:52.023Z,16.50
2019-04-19T20:08:32.394Z,16.40
2019-04-19T20:10:54.705Z,16.50
2019-04-19T20:13:34.066Z,16.70
2019-04-19T20:15:56.791Z,16.80
2019-04-19T20:18:33.262Z,16.60
2019-04-19T20:20:58.693Z,16.80
2019-04-19T20:23:35.103Z,16.80
2019-04-19T20:26:09.468Z,16.90
2019-04-19T20:28:34.734Z,16.90
2019-04-19T20:31:05.352Z,16.90
2019-04-19T20:33:42.703Z,17.10
2019-04-19T20:36:08.534Z,17.20
2019-04-19T20:38:42.708Z,17.20
2019-04-19T20:41:10.457Z,17.20
2019-04-19T20:43:54.951Z,17.10
2019-04-19T20:46:17.393Z,17.20
2019-04-19T20:48:45.773Z,17.20
2019-04-19T20:51:31.239Z,17.30
2019-04-19T20:54:01.503Z,17.30
2019-04-19T20:56:48.001Z,17.40
2019-04-19T20:58:58.505Z,17.40
2019-04-19T21:01:28.649Z,17.50
2019-04-19T21:04:01.674Z,17.50
2019-04-19T21:06:34.507Z,17.50
2019-04-19T21:09:24.912Z,17.60
2019-04-19T21:11:52.701Z,17.70
2019-04-19T21:14:31.942Z,17.80
2019-04-19T21:16:58.951Z,17.90
2019-04-19T21:19:26.508Z,17.90
2019-04-19T21:21:58.894Z,17.80
2019-04-19T21:24:31.637Z,17.80
2019-04-19T21:27:03.747Z,17.70
2019-04-19T21:29:33.945Z,17.60
2019-04-19T21:32:04.323Z,17.60
2019-04-19T21:34:36.669Z,17.60
2019-04-19T21:37:06.626Z,17.70
2019-04-19T21:39:39.110Z,17.60
2019-04-19T21:42:09.859Z,19.50
2019-04-19T21:44:40.039Z,20.70
2019-04-19T21:47:12.462Z,21.00
2019-04-19T21:49:44.362Z,21.30
2019-04-19T21:52:16.229Z,21.10
2019-04-19T21:54:47.782Z,21.30
2019-04-19T21:57:22.993Z,21.40
2019-04-19T21:59:48.249Z,21.30
2019-04-19T22:02:27.546Z,21.50
2019-04-19T22:04:55.908Z,21.40
2019-04-19T22:07:25.453Z,21.50
2019-04-19T22:09:59.078Z,21.80
2019-04-19T22:12:26.452Z,21.70
2019-04-19T22:15:01.782Z,21.70
2019-04-19T22:17:28.551Z,21.80
2019-04-19T22:20:04.423Z,21.70
2019-04-19T22:22:33.806Z,21.90
2019-04-19T22:25:09.435Z,22.00
2019-04-19T22:27:35.784Z,22.00
2019-04-19T22:30:09.845Z,22.00
2019-04-19T22:32:46.503Z,22.00
2019-04-19T22:35:17.107Z,22.00
2019-04-19T22:37:43.211Z,22.10
2019-04-19T22:40:14.272Z,22.30
2019-04-19T22:42:52.468Z,22.40
2019-04-19T22:45:20.574Z,22.40
2019-04-19T22:47:51.410Z,22.50
2019-04-19T22:50:26.827Z,22.40
2019-04-19T22:52:52.400Z,22.50
2019-04-19T22:55:22.871Z,22.40
2019-04-19T22:57:56.245Z,22.50
2019-04-19T23:00:30.736Z,22.60
2019-04-19T23:03:03.121Z,22.70
2019-04-19T23:05:39.840Z,22.70
2019-04-19T23:08:06.244Z,22.80
2019-04-19T23:10:44.998Z,23.00
2019-04-19T23:13:18.215Z,23.10
2019-04-19T23:15:47.972Z,23.10
2019-04-19T23:18:21.319Z,23.10
2019-04-19T23:20:49.085Z,23.30
2019-04-19T23:23:23.181Z,23.40
2019-04-19T23:26:10.722Z,23.30
2019-04-19T23:28:29.405Z,23.30
2019-04-19T23:31:00.623Z,23.30
2019-04-19T23:33:24.619Z,23.30
2019-04-19T23:35:55.495Z,23.40
2019-04-19T23:38:28.835Z,23.70
2019-04-19T23:40:57.273Z,23.80
2019-04-19T23:43:33.557Z,23.70
2019-04-19T23:45:58.402Z,23.80
2019-04-19T23:48:31.894Z,23.80
2019-04-19T23:51:00.048Z,23.70
2019-04-19T23:53:34.305Z,23.80
2019-04-19T23:56:02.411Z,23.70
2019-04-19T23:58:37.196Z,23.80
